createdAt,value
2023-03-19T00:00:36.296Z,68.30
2023-03-19T00:01:36.434Z,67.68
2023-03-19T00:02:36.684Z,68.09
2023-03-19T00:03:36.869Z,67.18
2023-03-19T00:04:37.011Z,68.09
2023-03-19T00:05:37.165Z,68.30
2023-03-19T00:06:37.345Z,67.79
2023-03-19T00:07:37.524Z,67.48
2023-03-19T00:08:37.715Z,66.97
2023-03-19T00:09:37.998Z,68.70
2023-03-19T00:10:38.064Z,68.50
2023-03-19T00:11:38.256Z,68.19
2023-03-19T00:12:38.444Z,68.09
2023-03-19T00:13:38.635Z,68.09
2023-03-19T00:14:38.827Z,68.50
2023-03-19T00:15:39.013Z,68.30
2023-03-19T00:16:39.171Z,67.30
2023-03-19T00:17:39.341Z,67.21
2023-03-19T00:18:39.515Z,67.27
2023-03-19T00:19:39.719Z,67.18
2023-03-19T00:20:39.881Z,67.07
2023-03-19T00:21:40.025Z,66.97
2023-03-19T00:22:40.434Z,67.68
2023-03-19T00:23:40.416Z,67.68
2023-03-19T00:24:40.568Z,67.48
2023-03-19T00:25:40.763Z,67.51
2023-03-19T00:26:40.904Z,67.00
2023-03-19T00:27:41.086Z,67.30
2023-03-19T00:28:41.316Z,67.71
2023-03-19T00:29:41.445Z,67.41
2023-03-19T00:30:41.686Z,66.59
2023-03-19T00:31:41.815Z,66.59
2023-03-19T00:32:41.998Z,66.28
2023-03-19T00:33:42.154Z,66.28
2023-03-19T00:34:42.375Z,65.98
2023-03-19T00:35:42.555Z,66.80
2023-03-19T00:36:42.693Z,66.08
2023-03-19T00:37:42.867Z,66.18
2023-03-19T00:38:43.048Z,66.28
2023-03-19T00:39:43.244Z,66.08
2023-03-19T00:40:43.432Z,65.37
2023-03-19T00:41:43.596Z,65.26
2023-03-19T00:42:43.775Z,65.88
2023-03-19T00:43:43.935Z,65.47
2023-03-19T00:44:44.104Z,65.47
2023-03-19T00:45:44.302Z,65.26
2023-03-19T00:46:44.471Z,65.67
2023-03-19T00:47:44.639Z,65.67
2023-03-19T00:48:44.811Z,65.88
2023-03-19T00:49:44.979Z,65.06
2023-03-19T00:50:45.164Z,65.98
2023-03-19T00:51:45.334Z,65.37
2023-03-19T00:52:45.504Z,65.57
2023-03-19T00:53:45.678Z,65.16
2023-03-19T00:54:45.845Z,65.37
2023-03-19T00:55:46.069Z,64.86
2023-03-19T00:56:46.205Z,64.96
2023-03-19T00:57:46.375Z,64.96
2023-03-19T00:58:46.552Z,64.86
2023-03-19T00:59:46.717Z,64.96
2023-03-19T01:00:46.905Z,64.65
2023-03-19T01:01:47.190Z,64.65
2023-03-19T01:02:47.240Z,65.06
2023-03-19T01:03:47.402Z,65.37
2023-03-19T01:04:47.639Z,65.16
2023-03-19T01:05:47.749Z,65.16
2023-03-19T01:06:47.924Z,64.55
2023-03-19T01:07:48.100Z,64.55
2023-03-19T01:08:48.269Z,64.75
2023-03-19T01:09:48.445Z,64.65
2023-03-19T01:10:48.639Z,64.75
2023-03-19T01:11:48.777Z,64.55
2023-03-19T01:12:48.950Z,64.07
2023-03-19T01:13:49.118Z,64.58
2023-03-19T01:14:49.310Z,64.27
2023-03-19T01:15:49.487Z,64.07
2023-03-19T01:16:49.655Z,63.76
2023-03-19T01:17:49.841Z,63.83
2023-03-19T01:18:49.998Z,64.48
2023-03-19T01:19:50.186Z,64.37
2023-03-19T01:20:50.365Z,64.17
2023-03-19T01:21:50.527Z,64.07
2023-03-19T01:22:50.706Z,63.96
2023-03-19T01:23:50.875Z,63.96
2023-03-19T01:24:51.057Z,63.86
2023-03-19T01:25:51.228Z,63.76
2023-03-19T01:26:51.401Z,63.56
2023-03-19T01:27:51.568Z,62.95
2023-03-19T01:28:51.751Z,63.76
2023-03-19T01:29:51.926Z,63.96
2023-03-19T01:30:52.136Z,63.76
2023-03-19T01:31:52.283Z,63.56
2023-03-19T01:32:52.489Z,63.73
2023-03-19T01:33:52.636Z,63.43
2023-03-19T01:34:52.807Z,63.12
2023-03-19T01:35:53.032Z,62.81
2023-03-19T01:36:53.150Z,62.81
2023-03-19T01:37:53.308Z,62.43
2023-03-19T01:38:53.484Z,62.51
2023-03-19T01:39:53.688Z,62.51
2023-03-19T01:40:53.816Z,62.51
2023-03-19T01:41:53.986Z,62.51
2023-03-19T01:42:54.156Z,62.30
2023-03-19T01:43:54.340Z,62.40
2023-03-19T01:44:54.517Z,62.20
2023-03-19T01:45:54.706Z,61.90
2023-03-19T01:46:54.874Z,62.10
2023-03-19T01:47:55.037Z,62.10
2023-03-19T01:48:55.220Z,61.97
2023-03-19T01:49:55.388Z,61.87
2023-03-19T01:50:55.571Z,61.87
2023-03-19T01:51:55.740Z,61.56
2023-03-19T01:52:55.913Z,61.76
2023-03-19T01:53:56.073Z,61.76
2023-03-19T01:54:56.264Z,61.66
2023-03-19T01:55:56.433Z,61.35
2023-03-19T01:56:56.604Z,61.35
2023-03-19T01:57:56.777Z,61.15
2023-03-19T01:58:56.989Z,60.74
2023-03-19T01:59:57.175Z,60.64
2023-03-19T02:00:57.301Z,60.64
2023-03-19T02:01:57.548Z,60.64
2023-03-19T02:02:57.644Z,60.53
2023-03-19T02:03:57.812Z,60.61
2023-03-19T02:04:58.009Z,60.51
2023-03-19T02:05:58.169Z,60.51
2023-03-19T02:06:58.340Z,60.41
2023-03-19T02:07:58.517Z,60.10
2023-03-19T02:08:58.724Z,60.41
2023-03-19T02:09:58.892Z,60.21
2023-03-19T02:10:59.039Z,59.89
2023-03-19T02:11:59.202Z,60.10
2023-03-19T02:12:59.386Z,60.00
2023-03-19T02:13:59.561Z,60.10
2023-03-19T02:14:59.751Z,60.30
2023-03-19T02:15:59.929Z,60.30
2023-03-19T02:17:00.119Z,60.21
2023-03-19T02:18:00.240Z,60.10
2023-03-19T02:19:00.409Z,60.00
2023-03-19T02:20:00.614Z,59.80
2023-03-19T02:21:00.812Z,60.00
2023-03-19T02:22:00.949Z,60.00
2023-03-19T02:23:01.128Z,60.21
2023-03-19T02:24:01.307Z,59.49
2023-03-19T02:25:01.470Z,59.49
2023-03-19T02:26:01.658Z,59.80
2023-03-19T02:27:01.829Z,60.61
2023-03-19T02:28:01.987Z,60.71
2023-03-19T02:29:02.170Z,60.51
2023-03-19T02:30:03.122Z,60.51
2023-03-19T02:31:02.546Z,60.41
2023-03-19T02:32:02.689Z,60.41
2023-03-19T02:33:02.880Z,60.30
2023-03-19T02:34:03.053Z,60.21
2023-03-19T02:35:03.248Z,60.10
2023-03-19T02:36:03.479Z,59.59
2023-03-19T02:37:03.591Z,59.39
2023-03-19T02:38:03.749Z,59.28
2023-03-19T02:39:03.927Z,60.00
2023-03-19T02:40:04.089Z,60.61
2023-03-19T02:41:04.281Z,60.41
2023-03-19T02:42:04.442Z,60.30
2023-03-19T02:43:04.619Z,59.89
2023-03-19T02:44:04.782Z,59.89
2023-03-19T02:45:04.965Z,59.89
2023-03-19T02:46:05.126Z,59.80
2023-03-19T02:47:05.297Z,59.89
2023-03-19T02:48:05.478Z,59.69
2023-03-19T02:49:05.660Z,59.39
2023-03-19T02:50:05.841Z,59.05
2023-03-19T02:51:05.974Z,58.85
2023-03-19T02:52:06.145Z,58.44
2023-03-19T02:53:06.340Z,58.54
2023-03-19T02:54:06.498Z,58.67
2023-03-19T02:55:06.687Z,58.95
2023-03-19T02:56:06.861Z,59.36
2023-03-19T02:57:07.031Z,59.56
2023-03-19T02:58:07.206Z,59.46
2023-03-19T02:59:07.405Z,59.16
2023-03-19T03:00:07.569Z,58.75
2023-03-19T03:01:07.752Z,58.95
2023-03-19T03:02:07.922Z,58.95
2023-03-19T03:03:08.102Z,58.75
2023-03-19T03:04:08.270Z,58.75
2023-03-19T03:05:08.460Z,58.62
2023-03-19T03:06:08.644Z,58.72
2023-03-19T03:07:08.800Z,58.72
2023-03-19T03:08:08.975Z,58.72
2023-03-19T03:09:09.151Z,58.92
2023-03-19T03:10:09.344Z,58.72
2023-03-19T03:11:09.485Z,58.72
2023-03-19T03:12:09.643Z,58.62
2023-03-19T03:13:09.813Z,58.72
2023-03-19T03:14:09.982Z,59.03
2023-03-19T03:15:10.176Z,59.53
2023-03-19T03:16:10.376Z,59.53
2023-03-19T03:17:10.503Z,58.51
2023-03-19T03:18:10.664Z,59.23
2023-03-19T03:19:10.839Z,58.92
2023-03-19T03:20:11.013Z,58.92
2023-03-19T03:21:11.194Z,59.03
2023-03-19T03:22:11.356Z,59.64
2023-03-19T03:23:11.533Z,59.33
2023-03-19T03:24:11.704Z,59.33
2023-03-19T03:25:11.874Z,59.33
2023-03-19T03:26:12.054Z,59.30
2023-03-19T03:27:12.233Z,59.30
2023-03-19T03:28:12.400Z,59.20
2023-03-19T03:29:12.575Z,59.30
2023-03-19T03:30:12.745Z,59.30
2023-03-19T03:31:12.986Z,59.41
2023-03-19T03:32:13.074Z,59.41
2023-03-19T03:33:13.252Z,59.61
2023-03-19T03:34:13.431Z,59.71
2023-03-19T03:35:13.595Z,59.91
2023-03-19T03:36:13.784Z,60.32
2023-03-19T03:37:13.955Z,59.71
2023-03-19T03:38:14.127Z,59.20
2023-03-19T03:39:14.324Z,59.30
2023-03-19T03:40:14.483Z,59.41
2023-03-19T03:41:14.667Z,59.71
2023-03-19T03:42:14.825Z,60.12
2023-03-19T03:43:15.016Z,59.71
2023-03-19T03:44:15.176Z,59.51
2023-03-19T03:45:15.357Z,59.81
2023-03-19T03:46:15.617Z,59.10
2023-03-19T03:47:15.684Z,59.51
2023-03-19T03:48:15.858Z,59.61
2023-03-19T03:49:16.059Z,59.71
2023-03-19T03:50:16.214Z,59.61
2023-03-19T03:51:16.403Z,59.71
2023-03-19T03:52:16.575Z,59.30
2023-03-19T03:53:16.751Z,59.51
2023-03-19T03:54:16.917Z,59.61
2023-03-19T03:55:17.096Z,59.51
2023-03-19T03:56:17.286Z,59.43
2023-03-19T03:57:17.459Z,59.43
2023-03-19T03:58:17.626Z,59.74
2023-03-19T03:59:17.796Z,59.91
2023-03-19T04:00:17.968Z,59.91
2023-03-19T04:01:18.166Z,59.61
2023-03-19T04:02:18.325Z,59.71
2023-03-19T04:03:18.585Z,59.71
2023-03-19T04:04:18.635Z,59.61
2023-03-19T04:05:18.807Z,59.61
2023-03-19T04:06:18.988Z,59.71
2023-03-19T04:07:19.157Z,60.12
2023-03-19T04:08:19.336Z,59.91
2023-03-19T04:09:19.505Z,59.61
2023-03-19T04:10:19.676Z,59.41
2023-03-19T04:11:19.869Z,59.30
2023-03-19T04:12:20.002Z,59.20
2023-03-19T04:13:20.174Z,59.61
2023-03-19T04:14:20.346Z,59.71
2023-03-19T04:15:20.525Z,59.71
2023-03-19T04:16:20.738Z,59.81
2023-03-19T04:17:20.875Z,59.41
2023-03-19T04:18:21.042Z,59.41
2023-03-19T04:19:21.224Z,59.51
2023-03-19T04:20:21.393Z,59.51
2023-03-19T04:21:21.581Z,59.41
2023-03-19T04:22:21.744Z,59.61
2023-03-19T04:23:21.927Z,60.02
2023-03-19T04:24:22.095Z,60.42
2023-03-19T04:25:22.277Z,60.63
2023-03-19T04:26:22.455Z,60.93
2023-03-19T04:27:22.633Z,61.04
2023-03-19T04:28:22.796Z,60.32
2023-03-19T04:29:22.983Z,60.63
2023-03-19T04:30:23.137Z,60.22
2023-03-19T04:31:23.368Z,60.32
2023-03-19T04:32:23.475Z,60.32
2023-03-19T04:33:23.648Z,60.22
2023-03-19T04:34:23.828Z,60.53
2023-03-19T04:35:24.132Z,60.42
2023-03-19T04:36:24.186Z,60.32
2023-03-19T04:37:24.344Z,60.02
2023-03-19T04:38:24.522Z,59.91
2023-03-19T04:39:24.694Z,60.12
2023-03-19T04:40:24.874Z,60.73
2023-03-19T04:41:25.044Z,60.83
2023-03-19T04:42:25.214Z,61.68
2023-03-19T04:43:25.394Z,62.70
2023-03-19T04:44:25.564Z,64.02
2023-03-19T04:45:25.750Z,65.04
2023-03-19T04:46:25.989Z,65.86
2023-03-19T04:47:26.086Z,65.99
2023-03-19T04:48:26.253Z,65.89
2023-03-19T04:49:26.422Z,65.78
2023-03-19T04:50:26.602Z,66.33
2023-03-19T04:51:26.786Z,66.42
2023-03-19T04:52:26.962Z,66.53
2023-03-19T04:53:27.124Z,66.94
2023-03-19T04:54:27.309Z,67.58
2023-03-19T04:55:27.463Z,67.68
2023-03-19T04:56:27.669Z,67.58
2023-03-19T04:57:27.824Z,67.68
2023-03-19T04:58:27.995Z,67.61
2023-03-19T04:59:28.161Z,68.02
2023-03-19T05:00:28.340Z,68.53
2023-03-19T05:01:28.543Z,68.94
2023-03-19T05:02:28.682Z,69.15
2023-03-19T05:03:28.943Z,69.45
2023-03-19T05:04:29.060Z,69.15
2023-03-19T05:05:29.241Z,69.15
2023-03-19T05:06:29.404Z,69.35
2023-03-19T05:07:29.551Z,69.24
2023-03-19T05:08:29.751Z,69.45
2023-03-19T05:09:29.901Z,69.56
2023-03-19T05:10:30.128Z,69.65
2023-03-19T05:11:30.252Z,69.96
2023-03-19T05:12:30.465Z,69.86
2023-03-19T05:13:30.601Z,69.96
2023-03-19T05:14:30.788Z,69.96
2023-03-19T05:15:30.945Z,69.96
2023-03-19T05:16:31.131Z,70.27
2023-03-19T05:17:31.284Z,70.06
2023-03-19T05:18:31.462Z,70.17
2023-03-19T05:19:31.632Z,70.27
2023-03-19T05:20:31.979Z,70.37
2023-03-19T05:21:32.009Z,70.81
2023-03-19T05:22:32.162Z,70.71
2023-03-19T05:23:32.322Z,70.71
2023-03-19T05:24:32.500Z,70.37
2023-03-19T05:25:32.756Z,70.57
2023-03-19T05:26:32.867Z,70.06
2023-03-19T05:27:33.034Z,70.06
2023-03-19T05:28:33.234Z,69.76
2023-03-19T05:29:33.393Z,69.76
2023-03-19T05:30:33.791Z,70.37
2023-03-19T05:31:33.776Z,69.93
2023-03-19T05:32:33.995Z,70.03
2023-03-19T05:33:34.108Z,69.93
2023-03-19T05:34:34.309Z,70.06
2023-03-19T05:35:34.536Z,69.86
2023-03-19T05:36:34.672Z,69.96
2023-03-19T05:37:34.810Z,70.06
2023-03-19T05:38:35.002Z,70.57
2023-03-19T05:39:35.188Z,71.29
2023-03-19T05:40:35.573Z,71.29
2023-03-19T05:41:35.595Z,71.19
2023-03-19T05:42:35.743Z,71.50
2023-03-19T05:43:35.922Z,71.70
2023-03-19T05:44:36.111Z,71.36
2023-03-19T05:45:36.333Z,71.36
2023-03-19T05:46:36.530Z,70.95
2023-03-19T05:47:36.648Z,71.15
2023-03-19T05:48:36.811Z,70.85
2023-03-19T05:49:36.979Z,71.05
2023-03-19T05:50:37.176Z,71.05
2023-03-19T05:51:37.338Z,71.26
2023-03-19T05:52:37.517Z,71.26
2023-03-19T05:53:37.688Z,71.15
2023-03-19T05:54:37.881Z,71.22
2023-03-19T05:55:38.049Z,70.92
2023-03-19T05:56:38.219Z,71.12
2023-03-19T05:57:38.370Z,70.92
2023-03-19T05:58:38.556Z,71.02
2023-03-19T05:59:38.717Z,71.02
2023-03-19T06:00:38.905Z,71.02
2023-03-19T06:01:39.107Z,70.78
2023-03-19T06:02:39.289Z,70.89
2023-03-19T06:03:39.409Z,70.68
2023-03-19T06:04:39.555Z,70.44
2023-03-19T06:05:39.734Z,69.83
2023-03-19T06:06:39.904Z,69.19
2023-03-19T06:07:40.056Z,68.98
2023-03-19T06:08:40.242Z,68.78
2023-03-19T06:09:40.404Z,68.48
2023-03-19T06:10:40.569Z,68.57
2023-03-19T06:11:40.765Z,68.68
2023-03-19T06:12:40.935Z,68.78
2023-03-19T06:13:41.083Z,68.68
2023-03-19T06:14:41.280Z,68.48
2023-03-19T06:15:41.464Z,68.65
2023-03-19T06:16:41.666Z,68.75
2023-03-19T06:17:41.827Z,68.95
2023-03-19T06:18:42.021Z,69.49
2023-03-19T06:19:42.205Z,69.49
2023-03-19T06:20:42.406Z,69.93
2023-03-19T06:21:42.594Z,70.14
2023-03-19T06:22:42.763Z,70.48
2023-03-19T06:23:42.956Z,70.89
2023-03-19T06:24:43.133Z,71.53
2023-03-19T06:25:43.311Z,71.43
2023-03-19T06:26:43.502Z,71.43
2023-03-19T06:27:43.681Z,71.73
2023-03-19T06:28:43.849Z,71.53
2023-03-19T06:29:44.025Z,72.04
2023-03-19T06:30:44.197Z,72.04
2023-03-19T06:31:44.446Z,72.14
2023-03-19T06:32:44.572Z,72.34
2023-03-19T06:33:44.726Z,72.34
2023-03-19T06:34:44.908Z,72.75
2023-03-19T06:35:45.095Z,72.75
2023-03-19T06:36:45.282Z,73.47
2023-03-19T06:37:45.426Z,73.57
2023-03-19T06:38:45.608Z,73.77
2023-03-19T06:39:45.778Z,73.27
2023-03-19T06:40:45.967Z,73.94
2023-03-19T06:41:46.138Z,73.74
2023-03-19T06:42:46.299Z,73.64
2023-03-19T06:43:46.457Z,73.40
2023-03-19T06:44:46.657Z,73.50
2023-03-19T06:45:46.840Z,73.30
2023-03-19T06:46:47.023Z,73.60
2023-03-19T06:47:47.188Z,73.26
2023-03-19T06:48:47.384Z,73.26
2023-03-19T06:49:47.555Z,72.75
2023-03-19T06:50:47.710Z,73.06
2023-03-19T06:51:47.893Z,73.06
2023-03-19T06:52:48.050Z,73.36
2023-03-19T06:53:48.246Z,73.91
2023-03-19T06:54:48.433Z,74.11
2023-03-19T06:55:48.660Z,74.42
2023-03-19T06:56:48.810Z,74.73
2023-03-19T06:57:48.979Z,76.15
2023-03-19T06:58:49.179Z,76.56
2023-03-19T06:59:49.372Z,76.59
2023-03-19T07:00:49.582Z,77.21
2023-03-19T07:01:49.697Z,77.21
2023-03-19T07:02:49.875Z,77.45
2023-03-19T07:03:50.084Z,78.67
2023-03-19T07:04:50.208Z,78.98
2023-03-19T07:05:50.444Z,78.30
2023-03-19T07:06:50.567Z,78.30
2023-03-19T07:07:50.737Z,78.61
2023-03-19T07:08:50.934Z,78.81
2023-03-19T07:09:51.079Z,78.81
2023-03-19T07:10:51.268Z,79.12
2023-03-19T07:11:51.440Z,79.43
2023-03-19T07:12:51.587Z,79.63
2023-03-19T07:13:51.745Z,79.63
2023-03-19T07:14:51.932Z,79.93
2023-03-19T07:15:52.119Z,79.90
2023-03-19T07:16:52.332Z,79.90
2023-03-19T07:17:52.482Z,80.30
2023-03-19T07:18:52.652Z,79.86
2023-03-19T07:19:52.826Z,79.75
2023-03-19T07:20:53.037Z,79.66
2023-03-19T07:21:53.187Z,79.32
2023-03-19T07:22:53.367Z,79.52
2023-03-19T07:23:53.543Z,79.72
2023-03-19T07:24:53.718Z,79.38
2023-03-19T07:25:53.884Z,79.48
2023-03-19T07:26:54.071Z,77.95
2023-03-19T07:27:56.033Z,77.14
2023-03-19T07:28:54.413Z,76.53
2023-03-19T07:29:54.582Z,76.93
2023-03-19T07:30:54.757Z,77.61
2023-03-19T07:31:54.974Z,75.88
2023-03-19T07:32:55.148Z,75.47
2023-03-19T07:33:55.246Z,76.90
2023-03-19T07:34:55.458Z,75.16
2023-03-19T07:35:55.692Z,75.57
2023-03-19T07:36:55.786Z,76.69
2023-03-19T07:37:55.946Z,77.10
2023-03-19T07:38:56.107Z,75.47
2023-03-19T07:39:56.278Z,75.16
2023-03-19T07:41:02.345Z,74.86
2023-03-19T07:41:57.650Z,75.78
2023-03-19T07:42:56.812Z,75.67
2023-03-19T07:43:56.966Z,76.45
2023-03-19T07:44:57.164Z,74.52
2023-03-19T07:45:57.378Z,75.33
2023-03-19T07:46:57.480Z,76.45
2023-03-19T07:47:57.660Z,76.04
2023-03-19T07:48:57.896Z,76.25
2023-03-19T07:49:57.992Z,76.62
2023-03-19T07:50:58.186Z,76.82
2023-03-19T07:51:58.364Z,76.92
2023-03-19T07:52:58.541Z,75.91
2023-03-19T07:53:58.696Z,73.87
2023-03-19T07:54:58.889Z,75.20
2023-03-19T07:55:59.042Z,74.69
2023-03-19T07:56:59.212Z,74.08
2023-03-19T07:57:59.376Z,74.79
2023-03-19T07:58:59.567Z,76.01
2023-03-19T07:59:59.873Z,75.91
2023-03-19T08:00:59.924Z,75.98
2023-03-19T08:02:00.153Z,76.38
2023-03-19T08:03:00.269Z,75.77
2023-03-19T08:04:00.451Z,74.65
2023-03-19T08:05:00.642Z,74.79
2023-03-19T08:06:00.796Z,74.28
2023-03-19T08:07:01.002Z,74.38
2023-03-19T08:08:01.182Z,75.20
2023-03-19T08:09:01.343Z,74.99
2023-03-19T08:10:01.504Z,74.69
2023-03-19T08:11:01.683Z,74.41
2023-03-19T08:12:01.842Z,74.41
2023-03-19T08:13:02.004Z,74.93
2023-03-19T08:14:02.172Z,75.33
2023-03-19T08:15:02.353Z,75.06
2023-03-19T08:16:02.531Z,74.55
2023-03-19T08:17:02.745Z,75.37
2023-03-19T08:18:02.891Z,75.57
2023-03-19T08:19:03.070Z,75.27
2023-03-19T08:20:03.241Z,75.67
2023-03-19T08:21:03.413Z,75.78
2023-03-19T08:22:03.595Z,75.88
2023-03-19T08:23:03.770Z,76.28
2023-03-19T08:24:05.102Z,76.08
2023-03-19T08:25:04.118Z,75.88
2023-03-19T08:26:04.325Z,75.67
2023-03-19T08:27:04.492Z,75.16
2023-03-19T08:28:04.661Z,74.96
2023-03-19T08:29:04.842Z,75.16
2023-03-19T08:30:05.010Z,75.16
2023-03-19T08:31:05.244Z,74.86
2023-03-19T08:32:05.340Z,75.37
2023-03-19T08:33:05.577Z,74.55
2023-03-19T08:34:05.698Z,74.25
2023-03-19T08:35:06.071Z,75.06
2023-03-19T08:36:06.046Z,74.45
2023-03-19T08:37:06.221Z,74.76
2023-03-19T08:38:06.391Z,74.25
2023-03-19T08:39:06.568Z,74.65
2023-03-19T08:40:06.750Z,73.94
2023-03-19T08:41:06.937Z,74.04
2023-03-19T08:42:07.106Z,73.84
2023-03-19T08:43:07.287Z,73.64
2023-03-19T08:44:07.456Z,73.64
2023-03-19T08:45:07.611Z,72.92
2023-03-19T08:46:07.952Z,73.54
2023-03-19T08:47:07.964Z,73.94
2023-03-19T08:48:08.138Z,74.45
2023-03-19T08:49:08.300Z,74.15
2023-03-19T08:50:08.481Z,74.04
2023-03-19T08:51:08.660Z,74.45
2023-03-19T08:52:08.847Z,73.71
2023-03-19T08:53:09.020Z,74.62
2023-03-19T08:54:09.199Z,73.71
2023-03-19T08:55:09.378Z,73.80
2023-03-19T08:56:09.535Z,73.19
2023-03-19T08:57:09.723Z,73.80
2023-03-19T08:58:09.889Z,72.75
2023-03-19T08:59:10.062Z,72.65
2023-03-19T09:00:10.242Z,72.82
2023-03-19T09:01:10.414Z,72.17
2023-03-19T09:02:10.656Z,70.62
2023-03-19T09:03:10.767Z,70.18
2023-03-19T09:04:10.954Z,70.28
2023-03-19T09:05:11.097Z,69.23
2023-03-19T09:06:11.281Z,68.93
2023-03-19T09:07:11.443Z,69.23
2023-03-19T09:08:11.608Z,70.04
2023-03-19T09:09:11.782Z,69.91
2023-03-19T09:10:11.959Z,68.90
2023-03-19T09:11:12.212Z,68.29
2023-03-19T09:12:12.341Z,67.68
2023-03-19T09:13:12.514Z,68.08
2023-03-19T09:14:12.706Z,68.05
2023-03-19T09:15:12.877Z,68.15
2023-03-19T09:16:13.102Z,67.75
2023-03-19T09:17:13.224Z,66.53
2023-03-19T09:18:13.421Z,66.91
2023-03-19T09:19:13.556Z,67.82
2023-03-19T09:20:13.739Z,67.11
2023-03-19T09:21:13.935Z,66.70
2023-03-19T09:22:14.100Z,66.88
2023-03-19T09:23:14.282Z,66.67
2023-03-19T09:24:14.458Z,67.28
2023-03-19T09:25:14.632Z,66.74
2023-03-19T09:26:14.824Z,66.64
2023-03-19T09:27:14.974Z,65.62
2023-03-19T09:28:15.135Z,65.93
2023-03-19T09:29:15.290Z,66.03
2023-03-19T09:30:15.482Z,65.96
2023-03-19T09:31:15.689Z,66.16
2023-03-19T09:32:15.803Z,66.57
2023-03-19T09:33:16.026Z,66.91
2023-03-19T09:34:16.152Z,66.91
2023-03-19T09:35:16.300Z,66.91
2023-03-19T09:36:16.549Z,67.95
2023-03-19T09:37:16.691Z,67.55
2023-03-19T09:38:16.862Z,67.85
2023-03-19T09:39:17.012Z,67.85
2023-03-19T09:40:17.187Z,68.05
2023-03-19T09:41:17.360Z,68.76
2023-03-19T09:42:17.511Z,68.96
2023-03-19T09:43:17.671Z,69.68
2023-03-19T09:44:17.832Z,68.56
2023-03-19T09:45:17.997Z,68.46
2023-03-19T09:46:19.521Z,69.64
2023-03-19T09:47:18.333Z,68.83
2023-03-19T09:48:18.506Z,69.44
2023-03-19T09:49:18.661Z,70.35
2023-03-19T09:50:18.831Z,69.20
2023-03-19T09:51:19.008Z,69.00
2023-03-19T09:52:19.198Z,69.20
2023-03-19T09:53:19.335Z,68.56
2023-03-19T09:54:19.514Z,68.16
2023-03-19T09:55:19.682Z,68.53
2023-03-19T09:56:19.861Z,66.41
2023-03-19T09:57:20.052Z,66.27
2023-03-19T09:58:20.232Z,65.84
2023-03-19T09:59:20.405Z,65.13
2023-03-19T10:00:20.652Z,65.33
2023-03-19T10:01:20.789Z,64.19
2023-03-19T10:02:20.952Z,63.78
2023-03-19T10:03:21.123Z,64.36
2023-03-19T10:04:21.332Z,63.55
2023-03-19T10:05:21.458Z,63.76
2023-03-19T10:06:21.643Z,63.96
2023-03-19T10:07:21.784Z,64.26
2023-03-19T10:08:21.956Z,64.46
2023-03-19T10:09:22.124Z,64.76
2023-03-19T10:10:22.301Z,65.07
2023-03-19T10:11:22.444Z,64.39
2023-03-19T10:12:22.653Z,63.89
2023-03-19T10:13:22.816Z,63.89
2023-03-19T10:14:22.966Z,64.19
2023-03-19T10:15:23.135Z,66.04
2023-03-19T10:16:23.364Z,66.21
2023-03-19T10:17:23.517Z,65.40
2023-03-19T10:18:23.666Z,64.79
2023-03-19T10:19:23.825Z,65.00
2023-03-19T10:20:24.005Z,65.61
2023-03-19T10:21:24.180Z,65.20
2023-03-19T10:22:24.356Z,64.49
2023-03-19T10:23:24.505Z,64.90
2023-03-19T10:24:24.694Z,65.30
2023-03-19T10:25:24.874Z,66.21
2023-03-19T10:26:25.037Z,65.81
2023-03-19T10:27:25.216Z,65.37
2023-03-19T10:28:25.376Z,65.24
2023-03-19T10:29:25.556Z,65.04
2023-03-19T10:30:25.727Z,65.31
2023-03-19T10:31:25.988Z,65.11
2023-03-19T10:32:26.102Z,64.58
2023-03-19T10:33:26.267Z,64.67
2023-03-19T10:34:26.451Z,64.14
2023-03-19T10:35:26.610Z,63.84
2023-03-19T10:36:26.788Z,62.60
2023-03-19T10:37:26.980Z,61.29
2023-03-19T10:38:27.140Z,61.49
2023-03-19T10:39:27.316Z,60.78
2023-03-19T10:40:27.490Z,60.21
2023-03-19T10:41:27.688Z,60.91
2023-03-19T10:42:27.837Z,61.35
2023-03-19T10:43:28.023Z,61.95
2023-03-19T10:44:28.200Z,62.85
2023-03-19T10:45:28.484Z,63.06
2023-03-19T10:46:28.637Z,64.14
2023-03-19T10:47:28.729Z,62.22
2023-03-19T10:48:28.919Z,63.03
2023-03-19T10:49:29.061Z,61.61
2023-03-19T10:50:29.259Z,62.43
2023-03-19T10:51:29.408Z,62.32
2023-03-19T10:52:29.641Z,60.81
2023-03-19T10:53:29.750Z,61.61
2023-03-19T10:54:29.920Z,60.91
2023-03-19T10:55:30.090Z,60.68
2023-03-19T10:56:30.285Z,60.08
2023-03-19T10:57:30.451Z,60.38
2023-03-19T10:58:30.605Z,60.98
2023-03-19T10:59:30.780Z,60.78
2023-03-19T11:00:30.987Z,60.28
2023-03-19T11:01:31.170Z,60.98
2023-03-19T11:02:31.339Z,60.28
2023-03-19T11:03:31.486Z,60.88
2023-03-19T11:04:31.628Z,60.98
2023-03-19T11:05:32.168Z,60.98
2023-03-19T11:06:31.972Z,60.78
2023-03-19T11:07:32.124Z,60.48
2023-03-19T11:08:35.889Z,60.28
2023-03-19T11:09:32.477Z,60.65
2023-03-19T11:10:32.687Z,61.76
2023-03-19T11:11:32.818Z,60.65
2023-03-19T11:12:33.008Z,61.23
2023-03-19T11:13:33.187Z,61.03
2023-03-19T11:14:33.367Z,60.72
2023-03-19T11:15:33.798Z,60.80
2023-03-19T11:16:33.927Z,58.68
2023-03-19T11:17:33.886Z,59.48
2023-03-19T11:18:34.050Z,59.28
2023-03-19T11:19:34.227Z,60.60
2023-03-19T11:20:34.404Z,60.97
2023-03-19T11:21:34.585Z,60.67
2023-03-19T11:22:34.787Z,58.95
2023-03-19T11:23:34.941Z,60.16
2023-03-19T11:24:35.116Z,59.06
2023-03-19T11:25:35.621Z,58.45
2023-03-19T11:26:35.475Z,58.25
2023-03-19T11:27:35.703Z,58.86
2023-03-19T11:28:35.826Z,58.05
2023-03-19T11:29:36.005Z,58.45
2023-03-19T11:30:36.187Z,58.65
2023-03-19T11:31:36.351Z,58.22
2023-03-19T11:32:36.648Z,58.55
2023-03-19T11:33:36.706Z,58.05
2023-03-19T11:34:36.905Z,57.35
2023-03-19T11:35:37.787Z,57.55
2023-03-19T11:36:37.272Z,58.15
2023-03-19T11:37:37.469Z,59.26
2023-03-19T11:38:37.646Z,58.83
2023-03-19T11:39:37.819Z,60.03
2023-03-19T11:40:38.023Z,59.74
2023-03-19T11:41:38.195Z,60.41
2023-03-19T11:42:38.389Z,57.59
2023-03-19T11:43:38.540Z,56.29
2023-03-19T11:44:38.738Z,56.79
2023-03-19T11:45:41.647Z,56.41
2023-03-19T11:46:39.096Z,56.82
2023-03-19T11:47:39.296Z,57.82
2023-03-19T11:48:39.473Z,58.42
2023-03-19T11:49:39.658Z,58.53
2023-03-19T11:50:39.838Z,56.92
2023-03-19T11:51:40.037Z,56.82
2023-03-19T11:52:40.241Z,57.22
2023-03-19T11:53:40.373Z,56.62
2023-03-19T11:54:40.562Z,58.42
2023-03-19T11:55:40.757Z,57.92
2023-03-19T11:56:40.931Z,56.71
2023-03-19T11:57:41.126Z,57.35
2023-03-19T11:58:41.286Z,57.35
2023-03-19T11:59:41.474Z,57.85
2023-03-19T12:00:41.624Z,57.42
2023-03-19T12:01:41.813Z,57.72
2023-03-19T12:02:42.031Z,56.92
2023-03-19T12:03:42.188Z,57.52
2023-03-19T12:04:42.322Z,58.90
2023-03-19T12:05:42.559Z,58.09
2023-03-19T12:06:42.663Z,59.20
2023-03-19T12:07:42.832Z,58.57
2023-03-19T12:08:43.003Z,58.57
2023-03-19T12:09:43.191Z,58.27
2023-03-19T12:10:43.376Z,56.66
2023-03-19T12:11:43.562Z,55.35
2023-03-19T12:12:43.769Z,55.66
2023-03-19T12:13:43.923Z,55.66
2023-03-19T12:14:44.117Z,56.46
2023-03-19T12:15:44.322Z,55.46
2023-03-19T12:16:46.398Z,55.26
2023-03-19T12:17:44.758Z,55.86
2023-03-19T12:18:45.005Z,56.66
2023-03-19T12:19:45.012Z,57.14
2023-03-19T12:20:45.195Z,56.43
2023-03-19T12:21:45.344Z,57.24
2023-03-19T12:22:45.536Z,56.34
2023-03-19T12:23:45.698Z,57.54
2023-03-19T12:24:45.922Z,56.81
2023-03-19T12:25:46.056Z,55.80
2023-03-19T12:26:46.245Z,56.71
2023-03-19T12:27:46.421Z,55.60
2023-03-19T12:28:46.563Z,56.98
2023-03-19T12:29:46.845Z,56.38
2023-03-19T12:30:46.956Z,55.28
2023-03-19T12:31:47.095Z,56.58
2023-03-19T12:32:47.307Z,55.28
2023-03-19T12:33:47.468Z,55.68
2023-03-19T12:34:47.643Z,55.25
2023-03-19T12:35:47.862Z,55.75
2023-03-19T12:36:47.995Z,55.15
2023-03-19T12:37:48.183Z,55.15
2023-03-19T12:38:48.381Z,56.45
2023-03-19T12:39:48.507Z,55.65
2023-03-19T12:40:48.654Z,55.85
2023-03-19T12:41:48.840Z,56.45
2023-03-19T12:42:49.032Z,55.95
2023-03-19T12:43:49.190Z,55.75
2023-03-19T12:44:49.364Z,55.95
2023-03-19T12:45:49.561Z,55.75
2023-03-19T12:46:49.806Z,55.35
2023-03-19T12:47:49.903Z,54.95
2023-03-19T12:48:50.063Z,54.95
2023-03-19T12:49:50.253Z,53.95
2023-03-19T12:50:50.403Z,53.64
2023-03-19T12:51:50.593Z,54.15
2023-03-19T12:52:50.793Z,54.45
2023-03-19T12:53:50.941Z,54.65
2023-03-19T12:54:51.162Z,53.25